Time;durP1;ratioP1;P1;durP2;ratioP2;P2;SDS_P1;SDS_P2;PMS_P1;PMS_P2;Temp;Humidity;BMP_temperature;BMP_pressure;BME280_temperature;BME280_humidity;BME280_pressure;Samples;Min_cycle;Max_cycle;Signal;HPM_P1;HPM_P2
2021/04/14 00:01:25;;;;;;;;;;;1.30;99.90;;;;;;10411494;28;19948;-87
2021/04/14 00:06:26;;;;;;;;;;;1.30;99.90;;;;;;10411669;28;19925;-87
2021/04/14 00:11:27;;;;;;;;;;;3.00;99.90;;;;;;10394752;28;19933;-87
2021/04/14 00:16:29;;;;;;;;;;;2.70;99.90;;;;;;10424156;28;19925;-87
2021/04/14 00:21:31;;;;;;;;;;;1.40;99.90;;;;;;10453179;28;19925;-87
2021/04/14 00:26:32;;;;;;;;;;;3.50;99.90;;;;;;10451864;28;19935;-87
2021/04/14 00:31:36;;;;;;;;;;;1.50;99.90;;;;;;10452283;28;19924;-87
2021/04/14 00:36:39;;;;;;;;;;;1.70;99.90;;;;;;10450571;28;19925;-87
2021/04/14 00:41:42;;;;;;;;;;;1.70;99.90;;;;;;10450337;28;19974;-87
2021/04/14 00:46:43;;;;;;;;;;;1.70;99.90;;;;;;10435573;28;20379;-87
2021/04/14 00:51:47;;;;;;;;;;;1.70;99.90;;;;;;10393049;28;19926;-87
2021/04/14 00:56:49;;;;;;;;;;;1.80;99.90;;;;;;10393656;28;19931;-87
2021/04/14 01:01:53;;;;;;;;;;;1.80;99.90;;;;;;10409737;28;19925;-87
2021/04/14 01:06:54;;;;;;;;;;;1.90;99.90;;;;;;10409038;28;19976;-87
2021/04/14 01:11:56;;;;;;;;;;;2.00;99.90;;;;;;10438882;28;19931;-87
2021/04/14 01:16:58;;;;;;;;;;;2.40;99.90;;;;;;10435226;28;19929;-87
2021/04/14 01:21:59;;;;;;;;;;;2.80;99.90;;;;;;10410226;28;20041;-87
2021/04/14 01:27:00;;;;;;;;;;;2.80;99.90;;;;;;10409516;28;20295;-87
2021/04/14 01:32:02;;;;;;;;;;;2.20;99.90;;;;;;10399031;28;19929;-87
2021/04/14 01:37:04;;;;;;;;;;;2.20;99.90;;;;;;10433490;28;20272;-87
2021/04/14 01:42:05;;;;;;;;;;;3.00;99.90;;;;;;10449744;28;19948;-87
2021/04/14 01:47:07;;;;;;;;;;;2.30;99.90;;;;;;10439130;28;19932;-87
2021/04/14 01:52:09;;;;;;;;;;;2.30;99.90;;;;;;10405350;28;20008;-87
2021/04/14 01:57:10;;;;;;;;;;;2.20;99.90;;;;;;10413719;28;20008;-86
2021/04/14 02:02:14;;;;;;;;;;;2.20;99.90;;;;;;10416511;28;19929;-86
2021/04/14 02:07:15;;;;;;;;;;;2.30;99.90;;;;;;10397801;28;20376;-86
2021/04/14 02:12:17;;;;;;;;;;;2.30;99.90;;;;;;10414164;28;19951;-86
2021/04/14 02:17:18;;;;;;;;;;;2.30;99.90;;;;;;10397173;28;19932;-86
2021/04/14 02:22:20;;;;;;;;;;;2.30;99.90;;;;;;10397953;28;19925;-86
2021/04/14 02:27:21;;;;;;;;;;;2.40;99.90;;;;;;10398283;28;19932;-87
2021/04/14 02:32:22;;;;;;;;;;;2.80;99.90;;;;;;10397337;28;20282;-86
2021/04/14 02:37:23;;;;;;;;;;;2.30;99.90;;;;;;10446539;28;19975;-86
2021/04/14 02:42:25;;;;;;;;;;;2.30;99.90;;;;;;10456537;28;19931;-86
2021/04/14 02:47:26;;;;;;;;;;;3.20;99.90;;;;;;10437259;28;20279;-86
2021/04/14 02:52:28;;;;;;;;;;;2.40;99.90;;;;;;10441679;28;20007;-86
2021/04/14 02:57:29;;;;;;;;;;;2.50;99.90;;;;;;10454730;28;19925;-86
2021/04/14 03:02:34;;;;;;;;;;;2.50;99.90;;;;;;10454692;28;19925;-86
2021/04/14 03:07:35;;;;;;;;;;;2.40;99.90;;;;;;10453845;28;19925;-86
2021/04/14 03:12:39;;;;;;;;;;;3.30;99.90;;;;;;10453551;28;20390;-86
2021/04/14 03:17:41;;;;;;;;;;;2.40;99.90;;;;;;10429815;28;19925;-86
2021/04/14 03:22:43;;;;;;;;;;;2.40;99.90;;;;;;10412835;28;19971;-86
2021/04/14 03:27:44;;;;;;;;;;;3.10;99.90;;;;;;10412193;28;19925;-86
2021/04/14 03:32:46;;;;;;;;;;;2.40;99.90;;;;;;10395226;28;19925;-86
2021/04/14 03:37:47;;;;;;;;;;;2.30;99.90;;;;;;10451094;28;19925;-86
2021/04/14 03:42:51;;;;;;;;;;;2.30;99.90;;;;;;10451034;28;20286;-86
2021/04/14 03:47:52;;;;;;;;;;;2.10;99.90;;;;;;10436228;28;19929;-86
2021/04/14 03:52:53;;;;;;;;;;;2.00;99.90;;;;;;10593230;27;20354;-86
2021/04/14 03:57:54;;;;;;;;;;;2.60;99.90;;;;;;10611086;27;19924;-86
2021/04/14 04:02:56;;;;;;;;;;;3.40;99.90;;;;;;10567364;28;19931;-86
2021/04/14 04:07:58;;;;;;;;;;;1.80;99.90;;;;;;10584520;28;20342;-86
2021/04/14 04:13:00;;;;;;;;;;;1.80;99.90;;;;;;10567074;28;19924;-87
2021/04/14 04:18:02;;;;;;;;;;;3.10;99.90;;;;;;10585804;28;19928;-86
2021/04/14 04:23:05;;;;;;;;;;;1.70;99.90;;;;;;10583487;28;19923;-87
2021/04/14 04:28:08;;;;;;;;;;;2.20;99.90;;;;;;10615199;27;19923;-86
2021/04/14 04:33:10;;;;;;;;;;;1.70;99.90;;;;;;10626176;27;20010;-86
2021/04/14 04:38:13;;;;;;;;;;;3.80;99.90;;;;;;10625425;27;19930;-86
2021/04/14 04:43:15;;;;;;;;;;;1.70;99.90;;;;;;10626311;27;19930;-86
2021/04/14 04:48:17;;;;;;;;;;;2.20;99.90;;;;;;10625292;27;19927;-87
2021/04/14 04:53:22;;;;;;;;;;;1.90;99.90;;;;;;10408921;23;20440;-88
2021/04/14 04:58:25;;;;;;;;;;;2.50;99.90;;;;;;10409432;28;19975;-88
2021/04/14 05:03:28;;;;;;;;;;;2.80;99.90;;;;;;10411043;28;19960;-88
2021/04/14 05:08:30;;;;;;;;;;;1.60;99.90;;;;;;10409742;28;19971;-88
2021/04/14 05:13:31;;;;;;;;;;;1.70;99.90;;;;;;10408754;28;19925;-88
2021/04/14 05:18:34;;;;;;;;;;;2.60;99.90;;;;;;10409321;28;19929;-88
2021/04/14 05:23:36;;;;;;;;;;;3.40;99.90;;;;;;10400689;28;20298;-88
2021/04/14 05:28:37;;;;;;;;;;;1.80;99.90;;;;;;10408498;28;20268;-88
2021/04/14 05:33:38;;;;;;;;;;;1.90;99.90;;;;;;10408942;28;19929;-88
2021/04/14 05:38:41;;;;;;;;;;;2.00;99.90;;;;;;10405866;28;20294;-88
2021/04/14 05:43:42;;;;;;;;;;;2.10;99.90;;;;;;10367803;28;19947;-88
2021/04/14 05:48:45;;;;;;;;;;;2.10;99.90;;;;;;10367179;28;20423;-89
2021/04/14 05:53:47;;;;;;;;;;;2.30;99.90;;;;;;10368002;28;19932;-89
2021/04/14 05:58:49;;;;;;;;;;;2.40;99.90;;;;;;10370346;28;19926;-88
2021/04/14 06:03:51;;;;;;;;;;;2.70;99.90;;;;;;10366748;28;20389;-88
2021/04/14 06:08:52;;;;;;;;;;;2.70;99.90;;;;;;10368566;28;19932;-89
2021/04/14 06:13:55;;;;;;;;;;;3.20;99.90;;;;;;10367771;28;19937;-89
2021/04/14 06:18:57;;;;;;;;;;;3.40;99.90;;;;;;10375264;28;20403;-89
2021/04/14 06:23:58;;;;;;;;;;;4.10;99.90;;;;;;10405256;28;19925;-89
2021/04/14 06:28:59;;;;;;;;;;;4.80;99.90;;;;;;10380047;28;19925;-89
2021/04/14 06:34:01;;;;;;;;;;;5.20;99.90;;;;;;10372475;28;20396;-90
2021/04/14 06:39:03;;;;;;;;;;;3.80;99.90;;;;;;10374856;28;19969;-90
2021/04/14 06:44:28;;;;;;;;;;;4.00;99.90;;;;;;10374138;28;19995;-90
2021/04/14 06:49:35;;;;;;;;;;;3.90;99.90;;;;;;10387541;28;20290;-90
2021/04/14 06:54:47;;;;;;;;;;;4.00;99.90;;;;;;10383279;28;19925;-90
2021/04/14 06:59:50;;;;;;;;;;;4.00;99.90;;;;;;10374558;28;19925;-89
2021/04/14 07:04:56;;;;;;;;;;;4.10;99.90;;;;;;10373342;28;19926;-89
2021/04/14 07:10:00;;;;;;;;;;;5.30;99.90;;;;;;10376657;28;19933;-89
2021/04/14 07:15:03;;;;;;;;;;;5.50;99.90;;;;;;10373635;28;19926;-89
2021/04/14 07:20:11;;;;;;;;;;;5.70;99.90;;;;;;10388054;28;19925;-89
2021/04/14 07:25:30;;;;;;;;;;;5.90;99.90;;;;;;10413640;28;20303;-89
2021/04/14 07:30:38;;;;;;;;;;;5.80;99.90;;;;;;10412457;28;19926;-89
2021/04/14 07:35:46;;;;;;;;;;;5.60;99.90;;;;;;10412902;28;19925;-89
2021/04/14 07:40:51;;;;;;;;;;;5.60;99.90;;;;;;10412323;28;19925;-89
2021/04/14 07:45:53;;;;;;;;;;;5.60;99.90;;;;;;10413309;28;20406;-89
2021/04/14 07:50:59;;;;;;;;;;;7.10;99.90;;;;;;10408388;28;19925;-90
2021/04/14 07:56:23;;;;;;;;;;;8.00;99.90;;;;;;10412032;28;19926;-90
2021/04/14 08:01:29;;;;;;;;;;;8.80;99.90;;;;;;10412078;28;19977;-90
2021/04/14 08:06:31;;;;;;;;;;;9.30;99.90;;;;;;10412632;28;19975;-90
2021/04/14 08:11:33;;;;;;;;;;;8.50;99.90;;;;;;10412403;28;19976;-89
2021/04/14 08:16:35;;;;;;;;;;;7.90;99.90;;;;;;10410983;28;19932;-87
2021/04/14 08:21:40;;;;;;;;;;;9.50;99.90;;;;;;10377096;28;20347;-89
2021/04/14 08:26:56;;;;;;;;;;;7.20;99.90;;;;;;10371256;28;19925;-89
2021/04/14 08:31:58;;;;;;;;;;;7.20;99.90;;;;;;10370742;28;19925;-89
2021/04/14 08:37:01;;;;;;;;;;;8.40;99.90;;;;;;10388839;28;19925;-89
2021/04/14 08:42:07;;;;;;;;;;;7.00;99.90;;;;;;10411267;28;19935;-89
2021/04/14 08:47:09;;;;;;;;;;;6.60;99.90;;;;;;10409274;28;19936;-89
2021/04/14 08:52:15;;;;;;;;;;;6.70;99.90;;;;;;10379534;28;19972;-89
2021/04/14 08:57:18;;;;;;;;;;;6.40;99.90;;;;;;10369577;28;19932;-89
2021/04/14 09:02:20;;;;;;;;;;;6.90;99.90;;;;;;10409565;28;20013;-89
2021/04/14 09:07:31;;;;;;;;;;;8.80;99.90;;;;;;10408472;28;20387;-89
2021/04/14 09:12:47;;;;;;;;;;;6.90;99.90;;;;;;10409514;28;20077;-90
2021/04/14 09:17:56;;;;;;;;;;;7.30;99.90;;;;;;10375681;28;20040;-89
2021/04/14 09:23:18;;;;;;;;;;;8.40;99.90;;;;;;10407224;28;19974;-90
2021/04/14 09:28:27;;;;;;;;;;;7.70;99.90;;;;;;10378687;28;19932;-88
2021/04/14 09:33:42;;;;;;;;;;;7.40;99.90;;;;;;10529940;28;19924;-89
2021/04/14 09:38:53;;;;;;;;;;;6.50;99.90;;;;;;10528259;28;19925;-90
2021/04/14 09:43:58;;;;;;;;;;;7.00;99.90;;;;;;10371978;28;19926;-90
2021/04/14 09:49:10;;;;;;;;;;;6.80;99.90;;;;;;10371875;28;19932;-90
2021/04/14 09:54:17;;;;;;;;;;;6.80;99.90;;;;;;10368202;28;19973;-87
2021/04/14 09:59:20;;;;;;;;;;;7.00;99.90;;;;;;10372425;28;19926;-89
2021/04/14 10:04:23;;;;;;;;;;;7.80;99.90;;;;;;10367904;28;19932;-89
2021/04/14 10:09:32;;;;;;;;;;;7.80;99.90;;;;;;10409236;28;19925;-89
2021/04/14 10:14:40;;;;;;;;;;;8.40;99.90;;;;;;10412081;28;20360;-89
2021/04/14 10:19:41;;;;;;;;;;;9.20;99.90;;;;;;10414685;28;19925;-89
2021/04/14 10:24:43;;;;;;;;;;;8.60;99.90;;;;;;10412981;28;19980;-90
2021/04/14 10:29:44;;;;;;;;;;;9.90;99.90;;;;;;10397689;28;20328;-90
2021/04/14 10:34:46;;;;;;;;;;;11.40;98.70;;;;;;10392548;28;19933;-89
2021/04/14 10:39:49;;;;;;;;;;;12.10;95.50;;;;;;10374911;28;19931;-89
2021/04/14 10:44:53;;;;;;;;;;;12.30;87.50;;;;;;10398642;28;19925;-89
2021/04/14 10:50:01;;;;;;;;;;;10.60;85.70;;;;;;10382398;28;19932;-90
2021/04/14 10:55:05;;;;;;;;;;;10.60;89.90;;;;;;10411475;28;19935;-89
2021/04/14 11:00:07;;;;;;;;;;;9.60;90.40;;;;;;10413586;28;19951;-89
2021/04/14 11:05:11;;;;;;;;;;;9.40;91.20;;;;;;10413625;28;20284;-89
2021/04/14 11:10:16;;;;;;;;;;;9.20;92.90;;;;;;10413154;28;19935;-89
2021/04/14 11:15:20;;;;;;;;;;;8.80;94.80;;;;;;10397830;28;20038;-89
2021/04/14 11:20:24;;;;;;;;;;;8.20;96.90;;;;;;10451212;22;19930;-86
2021/04/14 11:25:31;;;;;;;;;;;8.10;97.80;;;;;;10564624;28;20301;-86
2021/04/14 11:30:44;;;;;;;;;;;8.10;94.70;;;;;;10551620;27;19924;-85
2021/04/14 11:35:47;;;;;;;;;;;8.10;91.30;;;;;;10544621;27;20019;-84
2021/04/14 11:40:49;;;;;;;;;;;8.20;94.80;;;;;;10545784;27;20363;-85
2021/04/14 11:46:01;;;;;;;;;;;8.00;92.70;;;;;;10542207;28;20290;-85
2021/04/14 11:51:14;;;;;;;;;;;8.40;93.70;;;;;;10541486;28;19946;-86
2021/04/14 11:56:23;;;;;;;;;;;8.20;90.20;;;;;;10543603;28;19924;-86
2021/04/14 12:01:26;;;;;;;;;;;9.30;85.10;;;;;;10543065;28;19924;-85
2021/04/14 12:06:30;;;;;;;;;;;9.90;85.30;;;;;;10543382;28;19924;-84
2021/04/14 12:11:31;;;;;;;;;;;10.30;82.30;;;;;;10541148;28;19924;-86
2021/04/14 12:16:34;;;;;;;;;;;11.00;84.50;;;;;;10566049;28;19923;-86
2021/04/14 12:21:36;;;;;;;;;;;11.80;76.10;;;;;;10581331;28;19986;-86
2021/04/14 12:26:37;;;;;;;;;;;11.50;74.30;;;;;;10589415;27;20291;-86
2021/04/14 12:31:38;;;;;;;;;;;11.60;81.40;;;;;;10561573;28;19928;-85
2021/04/14 12:36:41;;;;;;;;;;;11.30;70.70;;;;;;10540065;28;19938;-86
2021/04/14 12:41:43;;;;;;;;;;;11.10;80.70;;;;;;10538888;28;20256;-86
2021/04/14 12:46:47;;;;;;;;;;;10.50;77.40;;;;;;10541810;28;19935;-86
2021/04/14 12:52:01;;;;;;;;;;;11.40;78.50;;;;;;10582590;28;20020;-86
2021/04/14 12:57:22;;;;;;;;;;;12.50;69.90;;;;;;10568753;28;19946;-86
2021/04/14 13:02:25;;;;;;;;;;;12.30;66.00;;;;;;10548519;28;19923;-86
2021/04/14 13:07:29;;;;;;;;;;;12.50;71.10;;;;;;10563672;28;19924;-86
2021/04/14 13:12:32;;;;;;;;;;;11.40;64.40;;;;;;10546443;28;19924;-86
2021/04/14 13:17:37;;;;;;;;;;;12.00;69.20;;;;;;10547798;28;20014;-86
2021/04/14 13:22:41;;;;;;;;;;;11.60;65.30;;;;;;10569867;28;19928;-86
2021/04/14 13:27:55;;;;;;;;;;;11.80;63.90;;;;;;10580797;28;19924;-86
2021/04/14 13:32:56;;;;;;;;;;;11.20;64.10;;;;;;10561815;28;19924;-86
2021/04/14 13:38:02;;;;;;;;;;;12.50;65.70;;;;;;10566816;28;19924;-86
2021/04/14 13:43:05;;;;;;;;;;;12.20;60.80;;;;;;10588078;28;20026;-86
2021/04/14 13:48:06;;;;;;;;;;;12.20;57.10;;;;;;10588339;28;19930;-86
2021/04/14 13:53:10;;;;;;;;;;;11.90;57.10;;;;;;10554329;28;20302;-86
2021/04/14 13:58:38;;;;;;;;;;;11.80;59.80;;;;;;10551584;28;19931;-86
2021/04/14 14:03:39;;;;;;;;;;;11.50;55.60;;;;;;10577780;28;20277;-86
2021/04/14 14:08:46;;;;;;;;;;;12.50;67.60;;;;;;10589569;28;19923;-86
2021/04/14 14:13:49;;;;;;;;;;;12.20;56.20;;;;;;10590098;28;19924;-87
2021/04/14 14:18:50;;;;;;;;;;;12.60;67.30;;;;;;10588308;28;20011;-86
2021/04/14 14:23:52;;;;;;;;;;;12.50;62.90;;;;;;10588333;28;19924;-86
2021/04/14 14:28:53;;;;;;;;;;;12.10;63.20;;;;;;10589120;28;20002;-86
2021/04/14 14:33:57;;;;;;;;;;;12.60;60.90;;;;;;10587505;28;19969;-86
2021/04/14 14:38:58;;;;;;;;;;;12.20;61.80;;;;;;10586972;28;20374;-86
2021/04/14 14:44:03;;;;;;;;;;;12.40;64.00;;;;;;10586659;28;19930;-86
2021/04/14 14:49:10;;;;;;;;;;;12.00;59.90;;;;;;10586865;28;19930;-86
2021/04/14 14:54:12;;;;;;;;;;;12.40;63.90;;;;;;10558414;28;19973;-86
2021/04/14 14:59:29;;;;;;;;;;;12.40;60.00;;;;;;10552319;28;19934;-86
2021/04/14 15:04:33;;;;;;;;;;;11.20;58.20;;;;;;10546947;27;20679;-86
2021/04/14 15:09:34;;;;;;;;;;;10.60;62.70;;;;;;10548451;28;19928;-86
2021/04/14 15:14:36;;;;;;;;;;;10.20;60.40;;;;;;10541244;28;19997;-86
2021/04/14 15:19:39;;;;;;;;;;;10.00;59.90;;;;;;10577067;28;19930;-86
2021/04/14 15:24:41;;;;;;;;;;;10.10;66.40;;;;;;10585004;28;20608;-86
2021/04/14 15:29:42;;;;;;;;;;;9.60;73.40;;;;;;10561723;28;19996;-87
2021/04/14 15:34:44;;;;;;;;;;;9.50;75.00;;;;;;10566250;28;19934;-87
2021/04/14 15:39:47;;;;;;;;;;;9.80;76.90;;;;;;10584234;28;19928;-86
2021/04/14 15:44:48;;;;;;;;;;;10.40;78.60;;;;;;10584686;28;19924;-86
2021/04/14 15:49:53;;;;;;;;;;;9.40;77.40;;;;;;10583789;28;20358;-86
2021/04/14 15:54:56;;;;;;;;;;;9.80;76.80;;;;;;10566151;28;20298;-87
2021/04/14 15:59:58;;;;;;;;;;;9.30;81.80;;;;;;10583839;28;19924;-86
2021/04/14 16:05:03;;;;;;;;;;;8.90;90.40;;;;;;10582815;28;20382;-85
2021/04/14 16:10:06;;;;;;;;;;;9.50;90.50;;;;;;10584030;28;19923;-84
2021/04/14 16:15:07;;;;;;;;;;;8.90;92.40;;;;;;10566621;28;20019;-84
2021/04/14 16:20:09;;;;;;;;;;;9.00;93.40;;;;;;10573627;28;19928;-85
2021/04/14 16:25:13;;;;;;;;;;;8.80;93.70;;;;;;10576001;28;21316;-84
2021/04/14 16:30:14;;;;;;;;;;;8.20;94.00;;;;;;10583134;28;20676;-84
2021/04/14 16:35:16;;;;;;;;;;;7.60;94.80;;;;;;10571600;28;19924;-85
2021/04/14 16:40:18;;;;;;;;;;;8.40;95.40;;;;;;10540550;28;19928;-84
2021/04/14 16:45:20;;;;;;;;;;;8.30;92.90;;;;;;10548733;28;19930;-84
2021/04/14 16:50:21;;;;;;;;;;;7.80;94.30;;;;;;10567588;28;19930;-85
2021/04/14 16:55:23;;;;;;;;;;;8.90;96.20;;;;;;10581145;28;19924;-84
2021/04/14 17:00:27;;;;;;;;;;;7.90;95.60;;;;;;10583282;28;19927;-85
2021/04/14 17:05:28;;;;;;;;;;;7.80;95.50;;;;;;10582865;28;20023;-85
2021/04/14 17:10:30;;;;;;;;;;;7.90;95.10;;;;;;10581214;28;19946;-85
2021/04/14 17:15:31;;;;;;;;;;;7.80;96.10;;;;;;10579492;28;19962;-85
2021/04/14 17:20:38;;;;;;;;;;;8.30;97.80;;;;;;10581021;28;19980;-85
2021/04/14 17:25:41;;;;;;;;;;;7.80;98.70;;;;;;10580699;28;20356;-84
2021/04/14 17:30:43;;;;;;;;;;;7.00;98.90;;;;;;10564201;28;19952;-84
2021/04/14 17:35:45;;;;;;;;;;;7.00;99.90;;;;;;10580689;28;19927;-85
2021/04/14 17:40:46;;;;;;;;;;;6.60;99.90;;;;;;10564349;28;19923;-85
2021/04/14 17:45:48;;;;;;;;;;;6.60;99.90;;;;;;10581486;28;20010;-85
2021/04/14 17:50:49;;;;;;;;;;;6.70;99.90;;;;;;10512211;22;19961;-88
2021/04/14 17:55:51;;;;;;;;;;;6.40;99.90;;;;;;10447660;28;19976;-87
2021/04/14 18:00:53;;;;;;;;;;;6.30;99.90;;;;;;10449042;28;19928;-87
2021/04/14 18:05:54;;;;;;;;;;;6.20;99.90;;;;;;10465629;28;19924;-87
2021/04/14 18:10:56;;;;;;;;;;;5.90;99.90;;;;;;10452563;28;19924;-88
2021/04/14 18:16:00;;;;;;;;;;;6.00;99.90;;;;;;10448767;28;19925;-88
2021/04/14 18:21:01;;;;;;;;;;;7.40;99.90;;;;;;10434590;28;19932;-88
2021/04/14 18:26:03;;;;;;;;;;;5.70;99.90;;;;;;10452625;28;19930;-87
2021/04/14 18:31:04;;;;;;;;;;;5.70;99.90;;;;;;10450666;28;19981;-87
2021/04/14 18:36:08;;;;;;;;;;;5.60;99.90;;;;;;10455418;28;19951;-87
2021/04/14 18:41:10;;;;;;;;;;;5.50;99.90;;;;;;10552462;27;19930;-87
2021/04/14 18:46:11;;;;;;;;;;;5.60;99.90;;;;;;10539431;27;20024;-87
2021/04/14 18:51:12;;;;;;;;;;;5.30;99.90;;;;;;10539683;27;19976;-88
2021/04/14 18:56:14;;;;;;;;;;;5.20;99.90;;;;;;10624552;27;19923;-87
2021/04/14 19:01:19;;;;;;;;;;;5.10;99.90;;;;;;10518147;27;19964;-88
2021/04/14 19:06:21;;;;;;;;;;;5.00;99.90;;;;;;10451245;28;19967;-87
2021/04/14 19:11:22;;;;;;;;;;;5.00;99.90;;;;;;10430863;28;19925;-87
2021/04/14 19:16:23;;;;;;;;;;;4.80;99.90;;;;;;10412952;28;19932;-88
2021/04/14 19:21:26;;;;;;;;;;;4.70;99.90;;;;;;10436146;28;19939;-87
2021/04/14 19:26:28;;;;;;;;;;;4.70;99.90;;;;;;10452932;28;19924;-87
2021/04/14 19:31:32;;;;;;;;;;;4.80;99.90;;;;;;10453284;28;19924;-87
2021/04/14 19:36:37;;;;;;;;;;;4.70;99.90;;;;;;10436999;28;19925;-87
2021/04/14 19:41:38;;;;;;;;;;;4.40;99.90;;;;;;10453135;28;19975;-88
2021/04/14 19:46:39;;;;;;;;;;;4.30;99.90;;;;;;10454339;28;19931;-88
2021/04/14 19:51:41;;;;;;;;;;;4.30;99.90;;;;;;10454134;28;19925;-88
2021/04/14 19:56:42;;;;;;;;;;;4.00;99.90;;;;;;10423642;27;19932;-88
2021/04/14 20:01:43;;;;;;;;;;;4.00;99.90;;;;;;10416338;28;19932;-87
2021/04/14 20:06:45;;;;;;;;;;;3.70;99.90;;;;;;10553532;27;19935;-88
2021/04/14 20:11:47;;;;;;;;;;;3.90;99.90;;;;;;10427667;28;19925;-88
2021/04/14 20:16:48;;;;;;;;;;;5.10;99.90;;;;;;10453922;28;20015;-88
2021/04/14 20:21:51;;;;;;;;;;;4.60;99.90;;;;;;10458088;27;19924;-88
2021/04/14 20:26:53;;;;;;;;;;;5.40;99.90;;;;;;10452314;28;20294;-88
2021/04/14 20:31:54;;;;;;;;;;;4.20;99.90;;;;;;10426355;27;19925;-88
2021/04/14 20:36:56;;;;;;;;;;;3.50;99.90;;;;;;10411020;28;20044;-88
2021/04/14 20:41:57;;;;;;;;;;;4.80;99.90;;;;;;10412846;28;19925;-88
2021/04/14 20:46:58;;;;;;;;;;;3.50;99.90;;;;;;10450461;28;19931;-88
2021/04/14 20:52:00;;;;;;;;;;;4.10;99.90;;;;;;10447710;28;19939;-88
2021/04/14 20:57:02;;;;;;;;;;;3.10;99.90;;;;;;10447324;28;20027;-88
2021/04/14 21:02:03;;;;;;;;;;;3.00;99.90;;;;;;10449807;28;20291;-88
2021/04/14 21:07:06;;;;;;;;;;;3.70;99.90;;;;;;10450590;28;19932;-88
2021/04/14 21:12:07;;;;;;;;;;;3.20;99.90;;;;;;10442640;28;20295;-88
2021/04/14 21:17:09;;;;;;;;;;;2.90;99.90;;;;;;10449087;28;20276;-88
2021/04/14 21:22:10;;;;;;;;;;;2.90;99.90;;;;;;10434962;28;19929;-88
2021/04/14 21:27:12;;;;;;;;;;;2.80;99.90;;;;;;10392203;28;19953;-88
2021/04/14 21:32:13;;;;;;;;;;;2.70;99.90;;;;;;10416347;27;20363;-86
2021/04/14 21:37:15;;;;;;;;;;;2.70;99.90;;;;;;10450273;28;19929;-88
2021/04/14 21:42:20;;;;;;;;;;;2.50;99.90;;;;;;10451191;28;19925;-88
2021/04/14 21:47:22;;;;;;;;;;;2.50;99.90;;;;;;10449809;28;19924;-88
2021/04/14 21:52:23;;;;;;;;;;;2.40;99.90;;;;;;10432612;28;20037;-88
2021/04/14 21:57:25;;;;;;;;;;;2.40;99.90;;;;;;10449598;28;19925;-88
2021/04/14 22:02:27;;;;;;;;;;;3.00;99.90;;;;;;10452837;28;19924;-88
2021/04/14 22:07:28;;;;;;;;;;;2.40;99.90;;;;;;10440199;28;19932;-87
2021/04/14 22:12:29;;;;;;;;;;;2.10;99.90;;;;;;10455855;28;20636;-88
2021/04/14 22:17:31;;;;;;;;;;;2.00;99.90;;;;;;10455764;28;19925;-88
2021/04/14 22:22:33;;;;;;;;;;;2.00;99.90;;;;;;10455405;28;19939;-87
2021/04/14 22:27:34;;;;;;;;;;;2.00;99.90;;;;;;10455312;28;20294;-87
2021/04/14 22:32:35;;;;;;;;;;;1.90;99.90;;;;;;10438494;28;20311;-87
2021/04/14 22:37:39;;;;;;;;;;;2.10;99.90;;;;;;10456760;28;19932;-87
2021/04/14 22:42:41;;;;;;;;;;;2.90;99.90;;;;;;10454899;28;19932;-87
2021/04/14 22:47:42;;;;;;;;;;;3.20;99.90;;;;;;10454726;28;19924;-87
2021/04/14 22:52:44;;;;;;;;;;;2.60;99.90;;;;;;10454355;28;20355;-87
2021/04/14 22:57:46;;;;;;;;;;;2.30;99.90;;;;;;10455584;28;19951;-87
2021/04/14 23:02:48;;;;;;;;;;;3.20;99.90;;;;;;10437731;28;20363;-87
2021/04/14 23:07:49;;;;;;;;;;;2.50;99.90;;;;;;10455883;28;20016;-87
2021/04/14 23:12:51;;;;;;;;;;;2.50;99.90;;;;;;10453541;28;19925;-87
2021/04/14 23:17:52;;;;;;;;;;;2.70;99.90;;;;;;10468733;27;20372;-86
2021/04/14 23:22:54;;;;;;;;;;;2.90;99.90;;;;;;10451688;28;19931;-85
2021/04/14 23:27:59;;;;;;;;;;;2.90;99.90;;;;;;10454045;28;19932;-86
2021/04/14 23:33:00;;;;;;;;;;;2.90;99.90;;;;;;10453724;28;19932;-85
2021/04/14 23:38:04;;;;;;;;;;;3.10;99.90;;;;;;10455225;28;20003;-86
2021/04/14 23:43:08;;;;;;;;;;;3.00;99.90;;;;;;10454730;28;19925;-86
2021/04/14 23:48:11;;;;;;;;;;;2.90;99.90;;;;;;10453263;28;20410;-86
2021/04/14 23:53:13;;;;;;;;;;;4.00;99.90;;;;;;10578254;22;19923;-85
2021/04/14 23:58:26;;;;;;;;;;;2.90;99.90;;;;;;10566821;28;19930;-85
